createdAt,value
2022-08-11T00:33:18.223Z,44.5
2022-08-11T01:03:20.823Z,44.5
2022-08-11T01:33:23.657Z,45.6
2022-08-11T02:03:25.850Z,44
2022-08-11T02:35:28.533Z,44
2022-08-11T03:05:31.184Z,43.5
2022-08-11T03:36:33.853Z,43.5
2022-08-11T04:06:36.264Z,42.9
2022-08-11T04:37:38.677Z,43.5
2022-08-11T05:08:41.613Z,44.5
2022-08-11T05:39:43.892Z,45.6
2022-08-11T06:10:46.712Z,46.7
2022-08-11T06:43:49.522Z,48.9
2022-08-11T07:14:52.000Z,55.3
2022-08-11T07:52:55.000Z,65.5
2022-08-11T08:40:59.284Z,76.3
2022-08-11T08:41:59.372Z,77.4
2022-08-11T08:42:59.486Z,76.8
2022-08-11T08:43:59.537Z,77.4
2022-08-11T09:28:03.457Z,78.4
2022-08-11T10:04:06.555Z,80.6
2022-08-11T10:05:06.598Z,79
2022-08-11T10:06:06.755Z,78.4
2022-08-11T10:07:06.903Z,80.1
2022-08-11T10:08:06.888Z,79
2022-08-11T10:41:09.889Z,80.6
2022-08-11T11:11:12.669Z,81.1
2022-08-11T11:42:15.308Z,80.1
2022-08-11T11:50:16.000Z,80.6
2022-08-11T12:24:18.000Z,79.0
2022-08-11T12:25:18.000Z,78.4
2022-08-11T13:00:21.697Z,77.9
2022-08-11T13:32:24.187Z,75.2
2022-08-11T14:02:27.034Z,74.1
2022-08-11T14:33:29.435Z,74.7
2022-08-11T15:05:32.007Z,75.8
2022-08-11T15:36:34.463Z,76.8
2022-08-11T16:06:37.038Z,76.3
2022-08-11T16:37:39.000Z,78.4
2022-08-11T17:21:43.000Z,73.6
2022-08-11T17:52:45.977Z,61.8
2022-08-11T18:22:48.597Z,55.8
2022-08-11T18:55:51.332Z,52.1
2022-08-11T19:25:54.045Z,51.5
2022-08-11T19:55:56.186Z,48.3
2022-08-11T20:25:58.777Z,48.3
2022-08-11T20:56:00.974Z,47.8
2022-08-11T21:30:03.775Z,47.8
2022-08-11T22:02:06.499Z,46.2
2022-08-11T22:33:09.101Z,45.6
2022-08-11T23:04:11.985Z,45.6
2022-08-11T23:35:14.200Z,44.5
